Cognac-Châteaubernard (BA 709) Air Base

LFBG · Département de la Charente, Aquitaine-Limousin-Poitou-Charentes, France

METAR anciennes LFBG · Cognac-Châteaubernard (BA 709) Air Base

Tu vois ci-dessous les METAR des derniers jours. Sélectionne une année pour parcourir les METAR plus anciens, à partir de l'année 2007.

27 novembre 2022

Temps Code Temps Temp. Vue Base cloud Vent METAR/SPECI
16:30
V
11 °C 10 km+ - 140° 140° 7 kt METAR LFBG 271530Z AUTO 14007KT CAVOK 11/06 Q1016
16:00
V
11 °C 10 km+ - 170° 170° 6 kt METAR LFBG 271500Z AUTO 17006KT CAVOK 11/06 Q1017
15:30
V
11 °C 10 km+ - 150° 150° 10 kt METAR LFBG 271430Z AUTO 15010KT CAVOK 11/06 Q1017
15:00
V
11 °C 10 km+ - 150° 150° 10 kt METAR LFBG 271400Z AUTO 15010KT CAVOK 11/06 Q1017
14:30
V
11 °C 10 km+ - 140° 140° 9 kt METAR LFBG 271330Z AUTO 14009KT CAVOK 11/06 Q1017
14:00
V
11 °C 10 km+ - 130° 130° 8 kt METAR LFBG 271300Z AUTO 13008KT CAVOK 11/06 Q1018
13:30
V
10 °C 10 km+ - 130° 130° 8 kt METAR LFBG 271230Z AUTO 13008KT CAVOK 10/06 Q1018
13:00
V
10 °C 10 km+ - 130° 130° 7 kt METAR LFBG 271200Z AUTO 13007KT CAVOK 10/06 Q1019
12:30
V
10 °C 10 km+ - 130° 130° 7 kt METAR LFBG 271130Z AUTO 13007KT CAVOK 10/06 Q1019
12:00
V
10 °C 10 km+ - 140° 140° 10 kt METAR LFBG 271100Z AUTO 14010KT CAVOK 10/06 Q1020
11:30
V
9 °C 10 km+ - 150° 150° 8 kt METAR LFBG 271030Z AUTO 15008KT CAVOK 09/06 Q1020
11:00
V
9 °C 10 km+ - 140° 140° 6 kt METAR LFBG 271000Z AUTO 14006KT CAVOK 09/06 Q1021
10:30
V
8 °C 10 km+ - 150° 150° 7 kt METAR LFBG 270930Z AUTO 15007KT CAVOK 08/05 Q1021
10:00
V
7 °C 10 km+ - 130° 130° 8 kt METAR LFBG 270900Z AUTO 13008KT CAVOK 07/05 Q1021
09:30
V
7 °C 10 km+ - 130° 130° 8 kt METAR LFBG 270830Z AUTO 13008KT CAVOK 07/05 Q1021
09:00
V
6 °C 10 km+ 6.800 ft 120° 120° 6 kt METAR LFBG 270800Z AUTO 12006KT 9999 FEW046 BKN068 06/05 Q1021
08:30
V
5 °C 10 km+ - 120° 120° 5 kt METAR LFBG 270730Z AUTO 12005KT CAVOK 05/05 Q1021
08:00
V
6 °C 10 km+ - 120° 120° 2 kt METAR LFBG 270700Z AUTO 12002KT CAVOK 06/05 Q1022
07:30
V
6 °C 10 km+ - 120° 120° 6 kt METAR LFBG 270630Z AUTO 12006KT CAVOK 06/05 Q1022
07:00
V
6 °C 10 km+ - Var Var 3 kt METAR LFBG 270600Z AUTO VRB03KT CAVOK 06/05 Q1022
06:30
V
6 °C 10 km+ - 110° 110° 4 kt METAR LFBG 270530Z AUTO 11004KT CAVOK 06/05 Q1022
06:00
V
6 °C 10 km+ - 100° 100° 5 kt METAR LFBG 270500Z AUTO 10005KT CAVOK 06/05 Q1022
05:30
V
6 °C 10 km+ - 100° 100° 3 kt METAR LFBG 270430Z AUTO 10003KT CAVOK 06/05 Q1023
05:00
V
6 °C 10 km+ - 120° 120° 3 kt METAR LFBG 270400Z AUTO 12003KT CAVOK 06/05 Q1023
04:30
V
6 °C 10 km+ - 070° 070° 3 kt METAR LFBG 270330Z AUTO 07003KT CAVOK 06/05 Q1023
04:00
V
6 °C 10 km+ - 120° 120° 3 kt METAR LFBG 270300Z AUTO 12003KT CAVOK 06/05 Q1023
03:30
V
5 °C 10 km+ - 110° 110° 4 kt METAR LFBG 270230Z AUTO 11004KT CAVOK 05/05 Q1023
03:00
V
5 °C 10 km+ - 120° 120° 4 kt METAR LFBG 270200Z AUTO 12004KT CAVOK 05/04 Q1024
02:30
V
6 °C 10 km+ - Var Var 1 kt METAR LFBG 270130Z AUTO VRB01KT CAVOK 06/05 Q1024
02:00
V
6 °C 10 km+ - 070° 070° 4 kt METAR LFBG 270100Z AUTO 07004KT CAVOK 06/05 Q1024
01:30
V
5 °C 10 km+ - 080° 080° 4 kt METAR LFBG 270030Z AUTO 08004KT CAVOK 05/05 Q1024
01:00
V
5 °C 10 km+ - 090° 090° 4 kt METAR LFBG 270000Z AUTO 09004KT CAVOK 05/05 Q1024
00:30
V
5 °C 10 km+ - 100° 100° 7 kt METAR LFBG 262330Z AUTO 10007KT CAVOK 05/05 Q1024
00:00
V
6 °C 9 km - 090° 090° 5 kt METAR LFBG 262300Z AUTO 09005KT 9000 NSC 06/05 Q1025

26 novembre 2022

Temps Code Temps Temp. Vue Base cloud Vent METAR/SPECI
23:30
V
6 °C 10 km+ - Var Var 2 kt METAR LFBG 262230Z AUTO VRB02KT CAVOK 06/05 Q1025
23:00
V
7 °C 10 km+ - 100° 100° 7 kt METAR LFBG 262200Z AUTO 10007KT CAVOK 07/06 Q1025
22:30
V
7 °C 10 km+ - 030° 030° 4 kt METAR LFBG 262130Z AUTO 03004KT CAVOK 07/06 Q1026
22:00
V
7 °C 10 km+ - 030° 030° 3 kt METAR LFBG 262100Z AUTO 03003KT CAVOK 07/06 Q1026
21:30
V
7 °C 10 km+ - 060° 060° 4 kt METAR LFBG 262030Z AUTO 06004KT CAVOK 07/07 Q1026
21:00
V
7 °C 10 km+ - 080° 080° 2 kt METAR LFBG 262000Z AUTO 08002KT CAVOK 07/07 Q1026
20:30
V
8 °C 10 km+ - 120° 120° 4 kt METAR LFBG 261930Z AUTO 12004KT CAVOK 08/07 Q1026
20:00
V
8 °C 10 km+ - 110° 110° 6 kt METAR LFBG 261900Z AUTO 11006KT CAVOK 08/07 Q1026
19:30
V
8 °C 10 km+ - 110° 110° 6 kt METAR LFBG 261830Z AUTO 11006KT CAVOK 08/07 Q1026
19:00
V
9 °C 10 km+ - 100° 100° 7 kt METAR LFBG 261800Z AUTO 10007KT CAVOK 09/07 Q1026
18:30
V
10 °C 10 km+ - 090° 090° 6 kt METAR LFBG 261730Z AUTO 09006KT CAVOK 10/08 Q1026
18:00
V
10 °C 10 km+ - 080° 080° 4 kt METAR LFBG 261700Z AUTO 08004KT CAVOK 10/08 Q1027
17:30
V
10 °C 10 km+ - 120° 120° 4 kt METAR LFBG 261630Z AUTO 12004KT CAVOK 10/08 Q1027
17:00
V
11 °C 10 km+ - 120° 120° 5 kt METAR LFBG 261600Z AUTO 12005KT CAVOK 11/08 Q1027
16:30
V
12 °C 10 km+ - 130° 130° 4 kt METAR LFBG 261530Z AUTO 13004KT CAVOK 12/08 Q1028
16:00
V
13 °C 10 km+ - 120° 120° 5 kt METAR LFBG 261500Z AUTO 12005KT CAVOK 13/08 Q1027
15:30
V
13 °C 10 km+ - 130° 130° 6 kt METAR LFBG 261430Z AUTO 13006KT CAVOK 13/08 Q1027
15:00
V
13 °C 10 km+ - 140° 140° 7 kt METAR LFBG 261400Z AUTO 14007KT 120V180 CAVOK 13/08 Q1028
14:30
V
13 °C 10 km+ - 130° 130° 8 kt METAR LFBG 261330Z AUTO 13008KT CAVOK 13/09 Q1028
14:00
V
13 °C 10 km+ - 130° 130° 9 kt METAR LFBG 261300Z AUTO 13009KT CAVOK 13/09 Q1028
13:30
V
12 °C 10 km+ - 140° 140° 8 kt METAR LFBG 261230Z AUTO 14008KT CAVOK 12/09 Q1029
13:00
V
12 °C 10 km+ - 150° 150° 6 kt METAR LFBG 261200Z AUTO 15006KT CAVOK 12/08 Q1030
12:30
V
11 °C 10 km+ - 160° 160° 6 kt METAR LFBG 261130Z AUTO 16006KT CAVOK 11/08 Q1030
12:00
V
11 °C 10 km+ - 140° 140° 6 kt METAR LFBG 261100Z AUTO 14006KT CAVOK 11/08 Q1030
11:30
V
10 °C 10 km+ - 130° 130° 6 kt METAR LFBG 261030Z AUTO 13006KT 100V160 CAVOK 10/08 Q1030
11:00
V
9 °C 10 km+ - 140° 140° 5 kt METAR LFBG 261000Z AUTO 14005KT CAVOK 09/07 Q1031
10:30
V
8 °C 10 km+ - Var 000° 0 kt METAR LFBG 260930Z AUTO 00000KT CAVOK 08/07 Q1030
10:00
V
6 °C 10 km+ - 120° 120° 3 kt METAR LFBG 260900Z AUTO 12003KT CAVOK 06/06 Q1030
09:30
V
6 °C 10 km+ - 100° 100° 5 kt METAR LFBG 260830Z AUTO 10005KT CAVOK 06/06 Q1030
09:00
V
5 °C 10 km+ - 090° 090° 7 kt METAR LFBG 260800Z AUTO 09007KT CAVOK 05/05 Q1030
08:30
V
5 °C 9 km - 080° 080° 4 kt METAR LFBG 260730Z AUTO 08004KT 9000 NSC 05/05 Q1030
08:00
V
5 °C 9 km - 080° 080° 4 kt METAR LFBG 260700Z AUTO 08004KT 9000 NSC 05/05 Q1030
07:30
V
5 °C 10 km+ - 090° 090° 4 kt METAR LFBG 260630Z AUTO 09004KT CAVOK 05/05 Q1030
07:00
I
5 °C 3,3 km - 080° 080° 4 kt METAR LFBG 260600Z AUTO 08004KT 7000 3300 NSC 05/05 Q1030
06:30
M
5 °C 7 km - 100° 100° 4 kt METAR LFBG 260530Z AUTO 10004KT 7000 NSC 05/05 Q1030
06:00
V
5 °C 8 km 21.000 ft 100° 100° 4 kt METAR LFBG 260500Z AUTO 10004KT 8000 FEW033 BKN210 OVC240 05/05 Q1030
05:30
V
5 °C 10 km+ 20.000 ft 080° 080° 1 kt METAR LFBG 260430Z AUTO 08001KT 9999 FEW032 BKN200 OVC220 05/05 Q1030
05:00
V
5 °C 8 km 22.000 ft 080° 080° 4 kt METAR LFBG 260400Z AUTO 08004KT 8000 FEW034 OVC220 05/05 Q1030
04:30
M
5 °C 6 km 3.300 ft 090° 090° 4 kt METAR LFBG 260330Z AUTO 09004KT 6000 BKN033 OVC230 05/05 Q1030
04:00
M
5 °C 6 km 3.300 ft 120° 120° 4 kt METAR LFBG 260300Z AUTO 12004KT 6000 BKN033 OVC220 05/05 Q1030
03:30
M
5 °C 7 km 3.200 ft 090° 090° 3 kt METAR LFBG 260230Z AUTO 09003KT 7000 OVC032 05/05 Q1031
03:00
M
5 °C 7 km 3.100 ft Var 000° 0 kt METAR LFBG 260200Z AUTO 00000KT 7000 BKN031 OVC250 05/05 Q1030
02:30
L
5 °C 1,2 km - Var 000° 0 kt METAR LFBG 260130Z AUTO 00000KT 6000 1200 R23/1500D SCT033 05/05 Q1030
02:00
I
5 °C 1,9 km - 090° 090° 5 kt METAR LFBG 260100Z AUTO 09005KT 3900 1900 BR FEW033 05/05 Q1030
01:30
I
5 °C 2,4 km 3.500 ft 120° 120° 5 kt METAR LFBG 260030Z AUTO 12005KT 2400 BR OVC035 05/04 Q1030
01:00
I
5 °C 3,7 km 3.200 ft 110° 110° 5 kt METAR LFBG 260000Z AUTO 11005KT 3700 BR OVC032 05/05 Q1030
00:30
I
5 °C 2,5 km - Var 000° 0 kt METAR LFBG 252330Z AUTO 00000KT 7000 2500 FEW037 05/05 Q1030
00:00
I
6 °C 2,7 km - 090° 090° 1 kt METAR LFBG 252300Z AUTO 09001KT 8000 2700 NSC 06/05 Q1030

25 novembre 2022

Temps Code Temps Temp. Vue Base cloud Vent METAR/SPECI
23:30
I
5 °C 3,4 km - 080° 080° 2 kt METAR LFBG 252230Z AUTO 08002KT 8000 3400 NSC 05/04 Q1030
23:00
V
7 °C 10 km+ - 270° 270° 1 kt METAR LFBG 252200Z AUTO 27001KT CAVOK 07/06 Q1030
22:30
V
8 °C 10 km+ - 250° 250° 4 kt METAR LFBG 252130Z AUTO 25004KT CAVOK 08/07 Q1029
22:00
V
8 °C 10 km+ - 250° 250° 3 kt METAR LFBG 252100Z AUTO 25003KT CAVOK 08/06 Q1029
21:30
V
8 °C 10 km+ - 230° 230° 3 kt METAR LFBG 252030Z AUTO 23003KT CAVOK 08/07 Q1029
21:00
V
7 °C 10 km+ - 200° 200° 2 kt METAR LFBG 252000Z AUTO 20002KT CAVOK 07/05 Q1029
20:30
V
8 °C 10 km+ - 230° 230° 2 kt METAR LFBG 251930Z AUTO 23002KT CAVOK 08/06 Q1029
20:00
V
8 °C 10 km+ - Var 000° 0 kt METAR LFBG 251900Z AUTO 00000KT CAVOK 08/06 Q1028 NOSIG
19:30
V
8 °C 10 km+ - 250° 250° 3 kt METAR LFBG 251830Z AUTO 25003KT CAVOK 08/07 Q1028 NOSIG
19:00
V
9 °C 10 km+ - 250° 250° 3 kt METAR LFBG 251800Z AUTO 25003KT CAVOK 09/07 Q1027 NOSIG
18:30
V
10 °C 10 km+ - 270° 270° 4 kt METAR LFBG 251730Z AUTO 27004KT CAVOK 10/07 Q1027 NOSIG
18:00
V
10 °C 10 km+ - 270° 270° 6 kt METAR LFBG 251700Z AUTO 27006KT CAVOK 10/07 Q1027 NOSIG
17:30
V
11 °C 10 km+ - 270° 270° 6 kt METAR LFBG 251630Z AUTO 27006KT CAVOK 11/07 Q1026 NOSIG
17:00
V
12 °C 10 km+ - 270° 270° 7 kt METAR LFBG 251600Z AUTO 27007KT CAVOK 12/08 Q1026 NOSIG
16:30
V
14 °C 10 km+ - 280° 280° 6 kt METAR LFBG 251530Z AUTO 28006KT CAVOK 14/08 Q1025 NOSIG
16:00
V
14 °C 10 km+ - 290° 290° 12 kt METAR LFBG 251500Z AUTO 29012KT CAVOK 14/08 Q1025 NOSIG
15:30
V
14 °C 10 km+ - 280° 280° 10 kt METAR LFBG 251430Z AUTO 28010KT CAVOK 14/08 Q1025 BECMG 22005KT
15:00
V
14 °C 10 km+ - 270° 270° 11 kt METAR LFBG 251400Z AUTO 27011KT 250V310 9999 FEW031 14/08 Q1025 TEMPO SHRA FEW015CB FEW020TCU
14:30
V
14 °C 10 km+ - 290° 290° 9 kt METAR LFBG 251330Z AUTO 29009KT CAVOK 14/07 Q1024 TEMPO SHRA FEW015CB FEW020TCU
14:00
V
14 °C 10 km+ 12.000 ft 280° 280° 9 kt METAR LFBG 251300Z AUTO 28009KT 9999 FEW034 BKN120 14/07 Q1024 TEMPO SHRA FEW015CB FEW020TCU
13:30
V
15 °C 10 km+ - 290° 290° 8 kt METAR LFBG 251230Z AUTO 29008KT 9999 FEW034 15/08 Q1024 TEMPO SHRA FEW015CB FEW020TCU
13:00
V
14 °C 10 km+ - 300° 300° 7 kt METAR LFBG 251200Z AUTO 30007KT 270V330 CAVOK 14/08 Q1023 TEMPO SHRA FEW015CB FEW020TCU
12:30
V
13 °C 10 km+ 12.000 ft 280° 280° 9 kt METAR LFBG 251130Z AUTO 28009KT 9999 FEW033 OVC120 13/09 Q1023 TEMPO SHRA FEW015CB FEW020TCU
12:00
V
13 °C 10 km+ - 290° 290° 7 kt METAR LFBG 251100Z AUTO 29007KT CAVOK 13/09 Q1023 TEMPO SHRA FEW015CB FEW020TCU
11:30
V
12 °C 10 km+ - 280° 280° 6 kt METAR LFBG 251030Z AUTO 28006KT CAVOK 12/09 Q1023 TEMPO SHRA FEW015CB FEW020TCU
11:00
V
11 °C 10 km+ - 250° 250° 4 kt METAR LFBG 251000Z AUTO 25004KT 9999 //////CB 11/10 Q1022 TEMPO SHRA

Nous et des tiers suivons ton comportement Internet sur notre site Web à l'aide de cookies. Si tu continues, nous supposons que tu es d'accord avec notre Politique en matière de cookies.